Time;durP1;ratioP1;P1;durP2;ratioP2;P2;SDS_P1;SDS_P2;PMS_P1;PMS_P2;Temp;Humidity;BMP_temperature;BMP_pressure;BME280_temperature;BME280_humidity;BME280_pressure;Samples;Min_cycle;Max_cycle;Signal;HPM_P1;HPM_P2
2021/06/20 00:01:47;;;;;;;14.40;12.90;;;;;;;26.48;59.63;158184.47;5096588;28;20535;-74
2021/06/20 00:04:23;;;;;;;14.97;13.73;;;;;;;26.43;60.46;158171.38;5097684;28;20476;-74
2021/06/20 00:06:58;;;;;;;14.63;13.23;;;;;;;26.36;60.77;158154.41;5080127;28;20473;-74
2021/06/20 00:09:34;;;;;;;15.57;14.20;;;;;;;26.33;60.86;158146.53;5077599;28;20912;-74
2021/06/20 00:12:11;;;;;;;14.47;12.97;;;;;;;26.31;61.11;158139.97;5077326;28;20440;-74
2021/06/20 00:14:47;;;;;;;14.70;13.30;;;;;;;26.30;60.99;158138.66;5086226;28;20821;-74
2021/06/20 00:17:22;;;;;;;14.77;13.37;;;;;;;26.25;61.08;158124.25;5081359;28;20452;-74
2021/06/20 00:19:58;;;;;;;15.67;14.20;;;;;;;26.22;60.62;158117.72;5077051;28;20920;-74
2021/06/20 00:22:34;;;;;;;14.00;12.60;;;;;;;26.27;60.57;158130.81;5077270;28;20445;-74
2021/06/20 00:25:11;;;;;;;16.87;13.73;;;;;;;26.28;61.05;158133.44;5094982;28;20436;-74
2021/06/20 00:27:48;;;;;;;14.10;12.60;;;;;;;26.23;60.90;158120.34;5077554;28;20445;-74
2021/06/20 00:30:26;;;;;;;15.43;13.93;;;;;;;26.15;61.96;158098.06;5095006;28;20896;-74
2021/06/20 00:33:01;;;;;;;15.93;14.43;;;;;;;26.12;62.12;158091.47;5095543;28;20480;-74
2021/06/20 00:35:37;;;;;;;14.40;13.07;;;;;;;26.08;62.01;158080.97;5088521;28;20830;-74
2021/06/20 00:38:13;;;;;;;15.13;13.43;;;;;;;26.12;60.81;158091.47;5095111;28;20437;-74
2021/06/20 00:40:48;;;;;;;14.00;12.70;;;;;;;26.12;61.00;158090.16;5095006;28;20426;-74
2021/06/20 00:43:25;;;;;;;17.53;12.37;;;;;;;26.12;61.05;158091.47;5076865;28;20468;-74
2021/06/20 00:46:03;;;;;;;16.63;13.00;;;;;;;26.11;60.26;158088.84;5093464;28;20437;-74
2021/06/20 00:48:39;;;;;;;15.70;12.20;;;;;;;26.08;60.51;158080.97;5085984;28;20449;-74
2021/06/20 00:51:14;;;;;;;14.10;12.70;;;;;;;26.13;60.21;158094.16;5094618;28;20436;-74
2021/06/20 00:53:50;;;;;;;13.03;11.73;;;;;;;26.12;59.68;158091.47;5089798;28;20447;-74
2021/06/20 00:56:25;;;;;;;16.20;12.30;;;;;;;26.17;59.86;158103.31;5083546;28;20453;-74
2021/06/20 00:59:04;;;;;;;12.07;10.97;;;;;;;26.28;59.75;158132.13;5108914;28;20468;-74
2021/06/20 01:01:39;;;;;;;14.07;12.63;;;;;;;26.27;59.55;158130.81;5096603;28;20444;-74
2021/06/20 01:04:15;;;;;;;15.43;12.10;;;;;;;26.28;59.10;158132.13;5098541;28;20833;-74
2021/06/20 01:06:50;;;;;;;17.30;10.53;;;;;;;26.28;58.99;158133.44;5095058;28;20436;-74
2021/06/20 01:09:26;;;;;;;16.50;11.07;;;;;;;26.32;58.60;158142.56;5093101;28;20824;-74
2021/06/20 01:12:02;;;;;;;14.60;10.93;;;;;;;26.32;58.55;158142.56;5074541;28;20425;-74
2021/06/20 01:14:39;;;;;;;18.97;10.50;;;;;;;26.36;57.76;158154.41;5078002;28;20543;-74
2021/06/20 01:17:15;;;;;;;21.70;10.10;;;;;;;26.43;57.24;158172.72;5076054;28;20433;-74
2021/06/20 01:19:51;;;;;;;22.47;10.93;;;;;;;26.38;56.87;158159.63;5094897;28;20441;-74
2021/06/20 01:22:30;;;;;;;21.00;10.87;;;;;;;26.39;56.55;158160.94;5076272;28;20437;-74
2021/06/20 01:25:08;;;;;;;24.63;10.43;;;;;;;26.36;56.17;158154.41;5094467;28;20473;-74
2021/06/20 01:27:47;;;;;;;24.83;10.30;;;;;;;26.34;56.16;158149.16;5090763;28;20452;-74
2021/06/20 01:30:25;;;;;;;19.37;9.60;;;;;;;26.29;56.82;158134.75;5095827;28;20534;-74
2021/06/20 01:33:01;;;;;;;20.37;8.50;;;;;;;26.35;56.15;158151.75;5094723;28;20472;-74
2021/06/20 01:35:38;;;;;;;22.03;8.63;;;;;;;26.34;55.96;158147.84;5093977;28;20942;-74
2021/06/20 01:38:14;;;;;;;21.17;11.10;;;;;;;26.29;56.07;158134.75;5112363;28;20444;-74
2021/06/20 01:40:50;;;;;;;19.60;9.50;;;;;;;26.27;56.07;158129.47;5079992;28;20452;-74
2021/06/20 01:43:25;;;;;;;20.10;9.33;;;;;;;26.21;56.77;158113.81;5094853;28;20547;-74
2021/06/20 01:46:01;;;;;;;25.37;8.70;;;;;;;26.18;56.27;158105.94;5080005;28;20436;-74
2021/06/20 01:48:37;;;;;;;32.67;9.07;;;;;;;26.17;56.78;158104.63;5096395;28;20852;-74
2021/06/20 01:51:12;;;;;;;21.20;9.70;;;;;;;26.14;56.71;158095.44;5092459;28;20437;-74
2021/06/20 01:53:49;;;;;;;23.03;9.67;;;;;;;26.09;56.46;158082.28;5092661;28;20444;-74
2021/06/20 01:56:26;;;;;;;22.47;8.83;;;;;;;26.12;56.83;158091.47;5093815;28;20436;-74
2021/06/20 01:59:01;;;;;;;25.83;9.13;;;;;;;26.08;56.71;158080.97;5095115;28;20448;-74
2021/06/20 02:01:37;;;;;;;19.27;8.63;;;;;;;26.05;57.16;158073.16;5095066;28;20459;-74
2021/06/20 02:04:12;;;;;;;25.00;9.60;;;;;;;25.99;57.40;158057.44;5095582;28;20464;-73
2021/06/20 02:06:48;;;;;;;20.20;8.80;;;;;;;25.97;57.18;158052.22;5094344;28;20792;-74
2021/06/20 02:09:25;;;;;;;17.07;9.13;;;;;;;25.86;58.26;158023.41;5095573;28;20448;-74
2021/06/20 02:12:00;;;;;;;23.23;8.90;;;;;;;25.86;58.13;158024.72;5113586;28;20413;-74
2021/06/20 02:14:37;;;;;;;18.93;8.87;;;;;;;25.80;58.39;158009.00;5093909;28;20546;-74
2021/06/20 02:17:20;;;;;;;19.40;9.50;;;;;;;25.80;58.85;158007.69;5094455;28;20935;-74
2021/06/20 02:19:58;;;;;;;21.87;8.87;;;;;;;25.74;58.68;157991.97;5096880;28;20433;-74
2021/06/20 02:22:33;;;;;;;17.37;9.10;;;;;;;25.74;59.24;157991.97;5095099;28;20444;-74
2021/06/20 02:25:13;;;;;;;26.13;9.17;;;;;;;25.74;59.52;157991.97;5093840;28;22285;-74
2021/06/20 02:27:50;;;;;;;18.50;9.30;;;;;;;25.71;59.77;157984.09;5074448;28;20465;-73
2021/06/20 02:30:26;;;;;;;23.47;8.90;;;;;;;25.72;59.59;157988.06;5082280;28;20436;-75
2021/06/20 02:33:02;;;;;;;26.27;10.10;;;;;;;25.69;59.68;157980.19;5094824;28;20468;-74
2021/06/20 02:35:37;;;;;;;21.37;9.13;;;;;;;25.65;60.20;157969.75;5077552;28;20799;-74
2021/06/20 02:38:13;;;;;;;19.87;9.07;;;;;;;25.63;60.50;157963.19;5076188;28;20469;-74
2021/06/20 02:40:50;;;;;;;20.77;9.20;;;;;;;25.54;60.99;157940.94;5059195;28;20441;-74
2021/06/20 02:43:25;;;;;;;16.50;8.13;;;;;;;25.47;60.93;157921.31;5095478;28;20448;-74
2021/06/20 02:46:01;;;;;;;20.00;9.87;;;;;;;25.43;61.06;157913.41;5081416;28;20535;-74
2021/06/20 02:48:37;;;;;;;19.50;9.33;;;;;;;25.38;61.39;157900.31;5076719;28;20456;-74
2021/06/20 02:51:12;;;;;;;21.97;9.43;;;;;;;25.38;61.49;157900.31;5081631;28;20469;-74
2021/06/20 02:53:48;;;;;;;17.20;8.50;;;;;;;25.36;61.51;157895.03;5082707;28;20547;-75
2021/06/20 02:56:25;;;;;;;18.47;10.50;;;;;;;25.29;61.84;157876.75;5098123;28;20472;-74
2021/06/20 02:59:00;;;;;;;20.47;9.60;;;;;;;25.24;62.29;157863.66;5099760;28;20912;-75
2021/06/20 03:01:36;;;;;;;21.50;9.07;;;;;;;25.30;62.21;157879.38;5086858;28;20547;-74
2021/06/20 03:04:11;;;;;;;20.53;10.10;;;;;;;25.28;61.92;157874.09;5069351;28;20574;-74
2021/06/20 03:06:47;;;;;;;20.10;9.07;;;;;;;25.29;62.36;157876.75;5119886;28;20416;-74
2021/06/20 03:09:22;;;;;;;18.27;9.07;;;;;;;25.23;62.86;157861.03;5084313;28;20455;-74
2021/06/20 03:11:59;;;;;;;20.73;8.87;;;;;;;25.20;62.92;157851.91;5091490;28;20452;-74
2021/06/20 03:14:35;;;;;;;35.97;9.93;;;;;;;25.14;62.90;157836.19;5081361;28;20440;-75
2021/06/20 03:17:13;;;;;;;18.13;8.90;;;;;;;25.10;63.26;157825.75;5065670;28;20437;-74
2021/06/20 03:19:49;;;;;;;20.37;10.10;;;;;;;25.08;63.43;157820.47;5081278;28;20532;-75
2021/06/20 03:22:25;;;;;;;22.93;9.90;;;;;;;25.04;63.93;157810.00;5075020;28;20440;-75
2021/06/20 03:25:00;;;;;;;20.23;10.37;;;;;;;25.01;63.56;157803.47;5081276;28;20464;-74
2021/06/20 03:27:38;;;;;;;23.00;8.90;;;;;;;24.96;63.92;157790.41;5102461;28;20463;-74
2021/06/20 03:30:14;;;;;;;25.77;9.17;;;;;;;24.98;63.71;157795.63;5081078;28;20440;-74
2021/06/20 03:32:50;;;;;;;19.23;10.07;;;;;;;24.97;64.04;157791.66;5080794;28;20500;-74
2021/06/20 03:35:26;;;;;;;22.63;9.33;;;;;;;24.96;63.83;157789.09;5080645;28;20461;-74
2021/06/20 03:38:03;;;;;;;19.37;8.70;;;;;;;24.93;64.30;157781.22;5083611;28;20471;-74
2021/06/20 03:40:39;;;;;;;13.67;8.70;;;;;;;24.95;64.83;157787.75;5080587;28;20448;-74
2021/06/20 03:43:16;;;;;;;17.80;9.77;;;;;;;24.85;67.46;157760.28;5090966;28;20455;-74
2021/06/20 03:45:52;;;;;;;12.10;8.40;;;;;;;24.86;68.37;157764.19;5101014;28;21200;-74
2021/06/20 03:48:28;;;;;;;23.70;10.30;;;;;;;24.81;70.17;157751.13;5070529;28;20547;-74
2021/06/20 03:51:06;;;;;;;17.50;8.80;;;;;;;24.77;70.60;157740.63;5084520;28;20444;-93
2021/06/20 03:53:43;;;;;;;18.10;8.43;;;;;;;24.70;71.29;157722.31;5085103;28;20441;-74
2021/06/20 03:56:20;;;;;;;20.83;9.30;;;;;;;24.66;70.83;157711.84;5075681;28;21008;-74
2021/06/20 03:58:58;;;;;;;18.00;10.23;;;;;;;24.63;71.21;157703.97;5079370;28;20433;-75
2021/06/20 04:01:33;;;;;;;20.77;9.30;;;;;;;24.65;70.66;157709.19;5078802;28;20430;-74
2021/06/20 04:04:09;;;;;;;20.00;9.60;;;;;;;24.63;70.53;157705.28;5062267;28;20472;-74
2021/06/20 04:06:45;;;;;;;16.70;9.70;;;;;;;24.63;71.16;157705.28;5077444;28;20799;-74
2021/06/20 04:09:21;;;;;;;20.93;9.27;;;;;;;24.58;71.25;157690.91;5069887;28;20866;-74
2021/06/20 04:11:56;;;;;;;19.93;9.90;;;;;;;24.55;71.21;157683.03;5115325;28;20417;-74
2021/06/20 04:14:33;;;;;;;21.13;9.43;;;;;;;24.53;73.24;157677.81;5097568;28;20448;-75
2021/06/20 04:17:09;;;;;;;16.73;9.23;;;;;;;24.47;73.79;157663.44;5112207;28;20428;-74
2021/06/20 04:19:44;;;;;;;16.70;9.70;;;;;;;24.42;73.57;157649.03;5093764;28;21145;-74
2021/06/20 04:22:20;;;;;;;17.00;9.10;;;;;;;24.39;75.41;157641.19;5075706;28;20443;-74
2021/06/20 04:24:56;;;;;;;21.23;9.30;;;;;;;24.36;75.34;157633.38;5101526;28;20476;-74
2021/06/20 04:27:36;;;;;;;20.57;9.43;;;;;;;24.39;74.05;157641.19;5078578;28;20508;-74
2021/06/20 04:30:15;;;;;;;15.90;8.97;;;;;;;24.37;73.82;157635.97;5100284;28;20527;-74
2021/06/20 04:32:51;;;;;;;18.30;9.67;;;;;;;24.33;74.15;157625.53;5098137;28;20457;-95
2021/06/20 04:35:27;;;;;;;20.37;10.20;;;;;;;24.37;73.79;157635.97;5099520;28;20971;-95
2021/06/20 04:38:04;;;;;;;15.77;9.33;;;;;;;24.33;74.39;157626.78;5095900;28;20433;-93
2021/06/20 04:40:42;;;;;;;17.60;8.53;;;;;;;24.27;73.54;157609.81;5096043;28;20434;-93
2021/06/20 04:43:38;;;;;;;13.27;8.20;;;;;;;24.24;74.92;157603.28;5095734;28;20445;-94
2021/06/20 04:46:27;;;;;;;13.00;8.47;;;;;;;24.28;73.89;157612.44;5097326;28;20807;-95
2021/06/20 04:49:06;;;;;;;21.50;8.73;;;;;;;24.28;75.47;157612.44;5097580;28;20453;-94
2021/06/20 04:51:42;;;;;;;12.10;7.67;;;;;;;24.32;75.37;157622.88;5083143;28;20440;-74
2021/06/20 04:54:22;;;;;;;16.20;7.70;;;;;;;24.28;75.52;157613.72;5100343;28;20461;-74
2021/06/20 04:56:58;;;;;;;16.23;8.30;;;;;;;24.36;74.43;157633.38;5077686;28;20426;-74
2021/06/20 04:59:41;;;;;;;14.50;8.40;;;;;;;24.35;74.28;157630.75;5075646;28;20484;-74
2021/06/20 05:02:19;;;;;;;17.07;8.10;;;;;;;24.49;73.61;157667.38;5081636;28;20928;-74
2021/06/20 05:04:55;;;;;;;17.70;8.80;;;;;;;24.53;73.65;157679.16;5075068;28;20852;-74
2021/06/20 05:07:30;;;;;;;17.47;7.60;;;;;;;24.44;73.75;157654.25;5098735;28;20443;-96
2021/06/20 05:10:08;;;;;;;16.13;8.63;;;;;;;24.47;72.77;157663.44;5099612;28;20443;-94
2021/06/20 05:12:43;;;;;;;12.87;7.63;;;;;;;24.50;73.04;157669.97;5099241;28;20527;-96
2021/06/20 05:15:19;;;;;;;17.40;7.83;;;;;;;24.49;72.71;157667.38;5102403;28;20417;-95
2021/06/20 05:17:56;;;;;;;18.90;8.30;;;;;;;24.39;72.62;157641.19;5102030;28;20779;-95
2021/06/20 05:20:31;;;;;;;15.00;8.43;;;;;;;24.44;72.33;157654.25;5105995;28;20436;-95
2021/06/20 05:23:07;;;;;;;13.47;7.50;;;;;;;24.44;72.01;157654.25;5103176;28;21428;-93
2021/06/20 05:25:43;;;;;;;11.30;7.30;;;;;;;24.39;73.70;157641.19;5083145;28;20487;-94
2021/06/20 05:28:19;;;;;;;16.57;8.60;;;;;;;24.33;75.70;157625.53;5098269;28;20527;-94
2021/06/20 05:30:54;;;;;;;11.53;7.70;;;;;;;24.32;77.50;157622.88;5098745;28;20899;-92
2021/06/20 05:33:31;;;;;;;14.20;7.87;;;;;;;24.35;78.00;157630.75;5097120;28;20495;-93
2021/06/20 05:36:07;;;;;;;13.00;7.13;;;;;;;24.46;78.38;157660.84;5098870;28;20448;-95
2021/06/20 05:38:47;;;;;;;15.33;8.23;;;;;;;24.57;78.57;157688.31;5098681;28;20440;-93
2021/06/20 05:41:22;;;;;;;17.80;7.83;;;;;;;24.61;75.70;157700.06;5098076;28;20531;-93
2021/06/20 05:43:57;;;;;;;12.57;6.93;;;;;;;24.55;76.36;157683.03;5097905;28;20444;-94
2021/06/20 05:46:33;;;;;;;12.00;7.67;;;;;;;24.49;75.26;157668.66;5097685;28;20464;-94
2021/06/20 05:49:10;;;;;;;12.77;7.10;;;;;;;24.38;75.60;157638.59;5115917;28;20424;-93
2021/06/20 05:51:45;;;;;;;12.47;6.50;;;;;;;24.43;76.01;157651.69;5098120;28;20428;-94
2021/06/20 05:54:21;;;;;;;13.90;6.33;;;;;;;24.53;75.19;157677.81;5097838;28;20526;-94
2021/06/20 05:56:56;;;;;;;12.57;6.70;;;;;;;24.51;72.89;157673.94;5097470;28;20527;-94
2021/06/20 05:59:32;;;;;;;12.63;6.20;;;;;;;24.55;73.81;157683.03;5097896;28;20424;-94
2021/06/20 06:02:08;;;;;;;10.43;6.10;;;;;;;24.59;72.85;157693.53;5082882;28;20440;-94
2021/06/20 06:04:45;;;;;;;10.73;5.53;;;;;;;24.69;71.54;157719.69;5097583;28;20934;-93
2021/06/20 06:07:20;;;;;;;14.53;5.80;;;;;;;24.71;72.43;157724.91;5116197;28;20412;-93
2021/06/20 06:09:56;;;;;;;10.20;5.80;;;;;;;24.90;72.21;157774.69;5098326;28;20443;-94
2021/06/20 06:12:31;;;;;;;12.97;6.60;;;;;;;25.33;70.75;157887.22;5098095;28;20436;-94
2021/06/20 06:15:08;;;;;;;13.33;6.00;;;;;;;25.64;70.31;157965.78;5097719;28;20444;-94
2021/06/20 06:17:44;;;;;;;9.97;6.20;;;;;;;25.91;68.50;158036.50;5102189;28;20428;-95
2021/06/20 06:20:21;;;;;;;12.17;6.03;;;;;;;26.52;66.28;158196.31;5135133;28;20409;-96
2021/06/20 06:22:57;;;;;;;11.60;5.60;;;;;;;26.63;63.31;158223.81;5094399;28;20416;-96
2021/06/20 06:25:34;;;;;;;12.20;5.80;;;;;;;26.63;64.14;158222.50;5103537;28;20846;-95
2021/06/20 06:28:09;;;;;;;11.80;5.27;;;;;;;26.66;62.24;158230.34;5116597;28;20424;-95
2021/06/20 06:30:45;;;;;;;12.67;6.17;;;;;;;26.51;62.97;158192.34;5116606;28;20405;-96
2021/06/20 06:33:21;;;;;;;9.83;5.20;;;;;;;26.48;63.17;158185.81;5087773;28;20476;-95
2021/06/20 06:35:58;;;;;;;11.27;5.83;;;;;;;26.65;62.27;158227.72;5078432;28;20422;-96
2021/06/20 06:38:34;;;;;;;12.63;5.23;;;;;;;26.63;62.00;158225.09;5078828;28;20532;-96
2021/06/20 06:41:09;;;;;;;10.43;5.00;;;;;;;26.92;60.62;158298.53;5089120;28;20849;-96
2021/06/20 06:43:45;;;;;;;14.90;6.77;;;;;;;27.06;60.21;158336.50;5087213;28;20437;-96
2021/06/20 06:46:20;;;;;;;9.70;5.03;;;;;;;27.12;58.86;158352.22;5083999;28;20951;-96
2021/06/20 06:48:56;;;;;;;13.67;4.67;;;;;;;27.17;58.20;158365.31;5079103;28;20531;-94
2021/06/20 06:51:34;;;;;;;11.77;4.53;;;;;;;27.03;58.02;158327.34;5095108;28;20413;-95
2021/06/20 06:54:09;;;;;;;9.43;4.53;;;;;;;27.00;58.60;158320.81;5077499;28;20449;-96
2021/06/20 06:56:45;;;;;;;8.93;4.57;;;;;;;26.89;58.29;158291.97;5077286;28;20424;-96
2021/06/20 06:59:21;;;;;;;8.03;4.80;;;;;;;26.81;58.89;158269.69;5061551;28;20532;-95
2021/06/20 07:01:57;;;;;;;7.37;4.70;;;;;;;26.86;58.60;158282.78;5076964;28;20432;-95
2021/06/20 07:04:32;;;;;;;8.13;4.67;;;;;;;26.68;58.99;158235.59;5076748;28;20540;-95
2021/06/20 07:07:09;;;;;;;6.50;5.00;;;;;;;26.78;58.31;158261.81;5077970;28;20468;-95
2021/06/20 07:09:45;;;;;;;13.80;5.10;;;;;;;26.54;58.95;158201.53;5077647;28;20786;-93
2021/06/20 07:12:20;;;;;;;10.20;5.90;;;;;;;26.33;59.08;158145.22;5077544;28;20441;-96
2021/06/20 07:14:56;;;;;;;6.97;5.67;;;;;;;26.33;59.05;158146.53;5076627;28;20449;-95
2021/06/20 07:17:32;;;;;;;12.23;6.10;;;;;;;26.26;60.51;158126.88;5076697;28;20476;-95
2021/06/20 07:20:11;;;;;;;12.60;6.23;;;;;;;26.19;61.57;158109.84;5079181;28;20441;-96
2021/06/20 07:22:49;;;;;;;11.80;7.20;;;;;;;26.00;62.52;158061.34;5061675;28;20429;-95
2021/06/20 07:25:25;;;;;;;13.23;8.57;;;;;;;25.73;65.10;157990.69;5077137;28;20461;-96
2021/06/20 07:28:00;;;;;;;14.97;8.50;;;;;;;26.10;64.59;158086.25;5094276;28;20413;-95
2021/06/20 07:30:36;;;;;;;12.50;7.37;;;;;;;26.75;63.14;158253.91;5112539;28;20402;-96
2021/06/20 07:33:11;;;;;;;10.40;6.90;;;;;;;26.78;62.48;158261.81;5085623;28;20464;-95
2021/06/20 07:35:49;;;;;;;10.73;7.60;;;;;;;26.65;63.15;158227.72;5098447;28;20413;-95
2021/06/20 07:38:26;;;;;;;19.47;9.00;;;;;;;26.38;64.05;158159.63;5080625;28;20445;-96
2021/06/20 07:41:02;;;;;;;15.00;8.20;;;;;;;25.97;65.99;158053.47;5079966;28;20440;-95
2021/06/20 07:43:37;;;;;;;8.00;5.50;;;;;;;26.06;64.76;158075.75;5080641;28;20441;-94
2021/06/20 07:46:13;;;;;;;11.07;5.40;;;;;;;25.94;63.09;158044.34;5079821;28;20488;-95
2021/06/20 07:48:49;;;;;;;8.70;5.10;;;;;;;25.56;63.89;157944.84;5065528;28;20433;-95
2021/06/20 07:51:24;;;;;;;10.30;5.17;;;;;;;25.75;64.77;157995.91;5083093;28;20797;-96
2021/06/20 07:54:01;;;;;;;7.27;4.80;;;;;;;25.52;64.32;157934.41;5107839;28;20524;-96
2021/06/20 07:56:37;;;;;;;9.03;4.47;;;;;;;25.23;64.39;157861.03;5113325;28;20466;-96
2021/06/20 07:59:12;;;;;;;9.00;5.03;;;;;;;25.27;63.95;157871.53;5110439;28;20410;-96
2021/06/20 08:01:48;;;;;;;10.10;4.57;;;;;;;25.15;63.47;157838.81;5090704;28;20437;-96
2021/06/20 08:04:23;;;;;;;8.10;5.73;;;;;;;25.18;63.75;157846.63;5092981;28;20429;-96
2021/06/20 08:06:59;;;;;;;8.43;4.53;;;;;;;25.17;64.35;157845.34;5078126;28;20496;-96
2021/06/20 08:09:36;;;;;;;8.07;4.73;;;;;;;25.08;64.73;157820.47;5094953;28;20433;-96
2021/06/20 08:12:12;;;;;;;9.50;4.50;;;;;;;24.98;63.78;157795.63;5095244;28;20433;-96
2021/06/20 08:14:47;;;;;;;6.03;4.50;;;;;;;24.84;64.61;157758.97;5112673;28;20405;-96
2021/06/20 08:17:22;;;;;;;8.00;4.67;;;;;;;24.91;64.10;157776.00;5090421;28;20998;-96
2021/06/20 08:19:59;;;;;;;7.03;4.90;;;;;;;25.08;64.13;157820.47;5077098;28;20421;-96
2021/06/20 08:22:35;;;;;;;8.10;5.30;;;;;;;25.10;64.16;157827.00;5092141;28;20424;-96
2021/06/20 08:25:17;;;;;;;10.73;4.40;;;;;;;25.13;65.15;157834.84;5089362;28;20806;-96
2021/06/20 08:28:13;;;;;;;7.97;4.30;;;;;;;25.30;63.80;157879.38;5093801;28;20442;-96
2021/06/20 08:30:49;;;;;;;12.10;5.03;;;;;;;25.21;64.19;157855.81;5101407;28;20783;-96
2021/06/20 08:33:25;;;;;;;6.20;4.50;;;;;;;25.11;64.33;157829.63;5093421;28;20459;-96
2021/06/20 08:36:01;;;;;;;12.03;7.70;;;;;;;25.22;64.90;157858.44;5095543;28;20449;-96
2021/06/20 08:38:38;;;;;;;12.80;7.10;;;;;;;25.29;64.17;157876.75;5097556;28;20441;-96
2021/06/20 08:41:16;;;;;;;15.07;7.00;;;;;;;25.21;65.06;157854.47;5094252;28;20420;-96
2021/06/20 08:43:56;;;;;;;9.30;6.33;;;;;;;25.44;65.54;157916.00;5113778;28;20432;-96
2021/06/20 08:46:32;;;;;;;10.73;7.53;;;;;;;25.56;65.01;157946.16;5114370;28;20509;-96
2021/06/20 08:49:08;;;;;;;10.00;6.30;;;;;;;25.67;66.03;157973.66;5080116;28;20417;-96
2021/06/20 08:51:47;;;;;;;12.80;6.97;;;;;;;25.57;67.00;157947.47;5092551;28;20437;-96
2021/06/20 08:54:23;;;;;;;11.63;6.23;;;;;;;25.57;67.36;157947.47;5090070;28;20418;-91
2021/06/20 08:57:01;;;;;;;11.00;7.43;;;;;;;25.47;68.94;157921.31;5084557;28;20771;-91
2021/06/20 08:59:37;;;;;;;11.80;6.87;;;;;;;25.32;68.88;157884.59;5062400;28;20844;-91
2021/06/20 09:02:12;;;;;;;13.40;6.80;;;;;;;25.40;66.98;157905.53;5077557;28;21001;-91
2021/06/20 09:04:55;;;;;;;15.40;7.70;;;;;;;25.37;67.60;157896.38;5077696;28;20437;-91
2021/06/20 09:07:32;;;;;;;15.10;7.23;;;;;;;25.29;67.32;157876.75;5076617;28;20465;-90
2021/06/20 09:10:14;;;;;;;11.37;6.67;;;;;;;25.37;65.33;157896.38;5078017;28;20429;-90
2021/06/20 09:12:52;;;;;;;8.20;5.90;;;;;;;25.42;65.74;157910.75;5059359;28;20438;-90
2021/06/20 09:15:29;;;;;;;10.47;6.80;;;;;;;25.48;65.03;157923.91;5074978;28;20415;-90
2021/06/20 09:18:07;;;;;;;10.90;6.27;;;;;;;25.53;65.98;157936.97;5095318;28;20848;-90
2021/06/20 09:20:44;;;;;;;11.53;6.60;;;;;;;25.52;66.99;157934.41;5077296;28;20434;-90
2021/06/20 09:23:20;;;;;;;14.30;7.10;;;;;;;25.57;66.68;157948.78;5076806;28;20436;-90
2021/06/20 09:25:57;;;;;;;10.10;6.00;;;;;;;25.70;66.42;157981.50;5076816;28;20995;-89
2021/06/20 09:28:36;;;;;;;8.73;6.77;;;;;;;25.83;66.30;158016.88;5075209;28;20931;-91
2021/06/20 09:31:11;;;;;;;11.00;6.67;;;;;;;25.83;66.01;158015.53;5076812;28;20466;-90
2021/06/20 09:33:48;;;;;;;14.03;6.30;;;;;;;25.93;65.31;158043.03;5076530;28;20823;-91
2021/06/20 09:36:28;;;;;;;10.47;5.70;;;;;;;25.86;63.30;158023.41;5076665;28;20807;-90
2021/06/20 09:39:05;;;;;;;9.60;5.37;;;;;;;25.98;62.49;158054.81;5094583;28;20421;-90
2021/06/20 09:41:44;;;;;;;10.30;4.80;;;;;;;26.01;60.69;158062.66;5094918;28;20987;-90
2021/06/20 09:44:20;;;;;;;7.33;4.77;;;;;;;26.07;60.78;158078.41;5094599;28;20421;-90
2021/06/20 09:46:56;;;;;;;8.50;4.93;;;;;;;26.19;60.35;158108.53;5076233;28;20543;-90
2021/06/20 09:49:32;;;;;;;12.03;5.60;;;;;;;26.10;59.48;158086.25;5094569;28;20409;-90
2021/06/20 09:52:08;;;;;;;10.80;5.00;;;;;;;25.84;60.97;158018.19;5077515;28;20437;-90
2021/06/20 09:54:52;;;;;;;8.10;5.00;;;;;;;25.92;60.64;158040.41;5093945;28;20792;-91
2021/06/20 09:57:28;;;;;;;6.83;4.27;;;;;;;26.09;57.43;158082.28;5075344;28;20441;-90
2021/06/20 10:00:06;;;;;;;6.73;3.33;;;;;;;26.14;54.33;158096.75;5076791;28;20524;-90
2021/06/20 10:02:48;;;;;;;7.83;3.90;;;;;;;26.20;54.86;158111.16;5071486;28;20441;-90
2021/06/20 10:05:23;;;;;;;7.40;3.57;;;;;;;26.27;55.67;158129.47;5076435;28;20429;-90
2021/06/20 10:08:01;;;;;;;8.00;4.50;;;;;;;26.39;55.76;158162.25;5076193;28;20843;-91
2021/06/20 10:10:37;;;;;;;8.10;3.63;;;;;;;26.37;52.13;158156.97;5060755;28;20429;-90
2021/06/20 10:13:12;;;;;;;5.70;3.63;;;;;;;26.29;52.57;158136.03;5094984;28;20433;-90
2021/06/20 10:15:49;;;;;;;6.70;3.77;;;;;;;26.31;53.40;158141.31;5077861;28;20442;-91
2021/06/20 10:18:25;;;;;;;4.93;2.77;;;;;;;26.24;52.55;158122.94;5094267;28;20877;-90
2021/06/20 10:21:01;;;;;;;7.63;3.80;;;;;;;26.07;54.41;158078.41;5076639;28;20425;-91
2021/06/20 10:23:37;;;;;;;5.47;3.67;;;;;;;26.05;53.97;158073.16;5094020;28;20756;-90
2021/06/20 10:26:12;;;;;;;6.10;3.43;;;;;;;25.84;54.11;158018.19;5075816;28;20808;-90
2021/06/20 10:28:51;;;;;;;6.73;4.20;;;;;;;25.92;55.58;158040.41;5093264;28;20413;-90
2021/06/20 10:31:35;;;;;;;10.50;4.90;;;;;;;25.86;56.28;158023.41;5076168;28;20445;-91
2021/06/20 10:34:24;;;;;;;7.70;4.23;;;;;;;25.83;54.83;158015.53;5095010;28;20469;-90
2021/06/20 10:37:01;;;;;;;5.63;3.47;;;;;;;25.80;55.91;158007.69;5099623;28;20430;-95
2021/06/20 10:39:47;;;;;;;9.60;3.30;;;;;;;25.77;54.85;158001.13;5097347;28;20437;-96
2021/06/20 10:42:34;;;;;;;4.80;3.00;;;;;;;25.84;55.63;158018.19;5081803;28;20474;-95
2021/06/20 10:45:11;;;;;;;7.77;3.97;;;;;;;25.96;55.71;158050.91;5098275;28;20528;-95
2021/06/20 10:47:48;;;;;;;7.73;4.23;;;;;;;26.11;55.44;158088.84;5100936;28;20816;-96
2021/06/20 10:50:23;;;;;;;6.70;2.83;;;;;;;26.00;55.27;158061.34;5099527;28;20437;-96
2021/06/20 10:53:00;;;;;;;4.80;3.27;;;;;;;26.22;55.01;158116.38;5101200;28;20498;-95
2021/06/20 10:55:43;;;;;;;6.57;3.20;;;;;;;26.23;53.89;158119.03;5096740;28;20397;-96
2021/06/20 10:58:23;;;;;;;4.50;2.83;;;;;;;26.10;54.35;158086.25;5097018;28;20414;-95
2021/06/20 11:01:07;;;;;;;5.93;3.10;;;;;;;26.38;55.39;158159.63;5094710;28;20409;-93
2021/06/20 11:03:48;;;;;;;7.03;3.37;;;;;;;26.73;54.96;158250.00;5094240;28;20433;-94
2021/06/20 11:06:25;;;;;;;5.40;3.70;;;;;;;26.93;55.10;158301.09;5098282;28;20489;-94
2021/06/20 11:09:01;;;;;;;6.33;3.40;;;;;;;26.88;54.20;158289.34;5097217;28;20449;-94
2021/06/20 11:11:49;;;;;;;5.87;3.57;;;;;;;26.78;55.44;158261.81;5098604;28;20456;-94
2021/06/20 11:14:25;;;;;;;5.80;3.43;;;;;;;26.80;53.42;158267.06;5097250;28;20524;-94
2021/06/20 11:17:07;;;;;;;8.93;3.80;;;;;;;26.78;53.42;158263.13;5098149;28;20779;-93
2021/06/20 11:19:44;;;;;;;7.93;3.70;;;;;;;26.76;54.12;158256.53;5097398;28;20523;-93
2021/06/20 11:22:19;;;;;;;11.20;3.60;;;;;;;26.74;53.99;158252.59;5098655;28;20429;-93
2021/06/20 11:24:56;;;;;;;4.20;3.53;;;;;;;26.99;55.31;158318.16;5097549;28;20433;-94
2021/06/20 11:27:33;;;;;;;7.37;4.27;;;;;;;27.44;54.27;158433.50;5099049;28;20456;-94
2021/06/20 11:30:18;;;;;;;4.90;3.27;;;;;;;27.45;54.00;158436.16;5097818;28;20429;-95
2021/06/20 11:32:53;;;;;;;5.30;3.70;;;;;;;27.18;53.47;158366.63;5097741;28;20480;-94
2021/06/20 11:35:30;;;;;;;8.27;3.50;;;;;;;26.96;54.43;158308.97;5097741;28;20413;-94
2021/06/20 11:38:06;;;;;;;8.50;4.47;;;;;;;27.30;54.56;158398.06;5081021;28;20469;-94
2021/06/20 11:40:42;;;;;;;4.97;3.43;;;;;;;27.35;52.52;158411.16;5096384;28;20920;-93
2021/06/20 11:43:17;;;;;;;7.00;3.60;;;;;;;27.30;53.50;158398.06;5096849;28;20425;-93
2021/06/20 11:45:53;;;;;;;6.80;3.90;;;;;;;27.10;53.53;158345.69;5097849;28;20421;-93
2021/06/20 11:48:29;;;;;;;8.13;4.67;;;;;;;27.15;54.09;158358.78;5097197;28;20448;-94
2021/06/20 11:51:06;;;;;;;9.07;4.10;;;;;;;27.37;53.49;158415.13;5096264;28;20516;-93
2021/06/20 11:53:41;;;;;;;5.97;3.70;;;;;;;27.30;52.73;158398.06;5097799;28;20429;-94
2021/06/20 11:56:28;;;;;;;9.80;3.80;;;;;;;27.27;53.45;158390.19;5097942;28;20429;-94
2021/06/20 11:59:03;;;;;;;8.30;3.73;;;;;;;27.40;52.86;158424.38;5096401;28;20441;-95
2021/06/20 12:01:47;;;;;;;7.33;4.67;;;;;;;27.56;52.57;158465.00;5096993;28;20440;-94
2021/06/20 12:04:24;;;;;;;8.20;3.93;;;;;;;27.82;52.66;158533.13;5096339;28;20787;-94